createdAt,value
2023-02-05T00:01:22.133Z,59.46
2023-02-05T00:03:49.477Z,59.91
2023-02-05T00:06:16.302Z,59.51
2023-02-05T00:08:43.101Z,59.42
2023-02-05T00:11:09.887Z,59.39
2023-02-05T00:13:38.309Z,59.40
2023-02-05T00:16:10.128Z,59.63
2023-02-05T00:18:37.563Z,59.29
2023-02-05T00:21:05.753Z,59.28
2023-02-05T00:23:32.863Z,59.30
2023-02-05T00:25:59.678Z,59.37
2023-02-05T00:28:26.490Z,59.50
2023-02-05T00:30:53.347Z,59.71
2023-02-05T00:33:21.979Z,59.28
2023-02-05T00:35:49.712Z,59.66
2023-02-05T00:38:17.372Z,59.33
2023-02-05T00:40:44.215Z,59.70
2023-02-05T00:43:10.949Z,59.84
2023-02-05T00:45:37.686Z,59.78
2023-02-05T00:48:05.139Z,59.48
2023-02-05T00:50:32.514Z,59.52
2023-02-05T00:52:59.325Z,59.50
2023-02-05T00:55:26.157Z,59.53
2023-02-05T00:57:52.822Z,60.03
2023-02-05T01:00:19.877Z,60.02
2023-02-05T01:02:46.679Z,59.63
2023-02-05T01:05:13.610Z,60.09
2023-02-05T01:07:40.717Z,59.98
2023-02-05T01:10:07.954Z,60.19
2023-02-05T01:12:34.864Z,59.89
2023-02-05T01:15:02.428Z,60.21
2023-02-05T01:17:29.194Z,60.12
2023-02-05T01:19:56.128Z,60.34
2023-02-05T01:22:23.001Z,59.83
2023-02-05T01:24:50.237Z,59.91
2023-02-05T01:27:17.063Z,59.91
2023-02-05T01:29:43.801Z,60.18
2023-02-05T01:32:10.663Z,60.28
2023-02-05T01:34:37.386Z,59.84
2023-02-05T01:37:04.158Z,59.83
2023-02-05T01:39:30.840Z,60.14
2023-02-05T01:41:57.748Z,60.40
2023-02-05T01:44:25.163Z,60.26
2023-02-05T01:46:54.015Z,60.17
2023-02-05T01:49:25.516Z,59.87
2023-02-05T01:51:54.085Z,60.00
2023-02-05T01:54:23.013Z,60.10
2023-02-05T01:57:01.050Z,60.10
2023-02-05T01:59:29.612Z,59.79
2023-02-05T02:01:56.657Z,60.15
2023-02-05T02:04:46.352Z,59.75
2023-02-05T02:07:15.437Z,60.12
2023-02-05T02:09:43.576Z,59.89
2023-02-05T02:12:12.742Z,60.00
2023-02-05T02:14:41.325Z,59.60
2023-02-05T02:17:09.600Z,59.95
2023-02-05T02:19:39.824Z,59.51
2023-02-05T02:22:13.089Z,59.74
2023-02-05T02:24:52.248Z,59.64
2023-02-05T02:27:22.070Z,59.82
2023-02-05T02:30:05.866Z,59.56
2023-02-05T02:32:40.679Z,60.00
2023-02-05T02:35:12.700Z,60.14
2023-02-05T02:37:52.676Z,59.99
2023-02-05T02:40:28.908Z,59.64
2023-02-05T02:43:10.407Z,59.83
2023-02-05T02:45:43.244Z,59.92
2023-02-05T02:48:10.731Z,59.85
2023-02-05T02:50:41.375Z,59.85
2023-02-05T02:53:11.506Z,59.51
2023-02-05T02:55:43.659Z,59.36
2023-02-05T02:58:23.201Z,59.76
2023-02-05T03:00:53.698Z,59.61
2023-02-05T03:03:22.705Z,59.47
2023-02-05T03:05:50.024Z,59.66
2023-02-05T03:08:22.439Z,60.08
2023-02-05T03:10:59.862Z,59.85
2023-02-05T03:13:29.439Z,59.71
2023-02-05T03:16:00.590Z,59.77
2023-02-05T03:18:27.732Z,59.97
2023-02-05T03:20:57.660Z,60.18
2023-02-05T03:23:27.137Z,59.73
2023-02-05T03:25:54.400Z,59.74
2023-02-05T03:28:28.069Z,59.78
2023-02-05T03:30:57.779Z,59.99
2023-02-05T03:33:27.430Z,59.71
2023-02-05T03:36:27.986Z,59.74
2023-02-05T03:39:01.660Z,59.57
2023-02-05T03:41:56.654Z,59.55
2023-02-05T03:44:30.352Z,59.85
2023-02-05T03:47:09.654Z,59.43
2023-02-05T03:49:43.368Z,59.43
2023-02-05T03:52:17.171Z,59.26
2023-02-05T03:55:08.653Z,59.37
2023-02-05T03:57:49.286Z,59.49
2023-02-05T04:00:17.018Z,59.64
2023-02-05T04:02:46.530Z,59.74
2023-02-05T04:05:22.873Z,59.59
2023-02-05T04:07:51.993Z,59.58
2023-02-05T04:10:20.968Z,59.73
2023-02-05T04:12:48.549Z,59.53
2023-02-05T04:15:16.696Z,59.74
2023-02-05T04:17:47.258Z,59.63
2023-02-05T04:20:14.265Z,59.49
2023-02-05T04:22:41.586Z,59.66
2023-02-05T04:25:08.667Z,59.83
2023-02-05T04:27:35.679Z,59.81
2023-02-05T04:30:04.170Z,59.52
2023-02-05T04:32:34.262Z,59.67
2023-02-05T04:35:01.349Z,59.48
2023-02-05T04:37:28.051Z,59.61
2023-02-05T04:39:54.901Z,59.76
2023-02-05T04:42:21.599Z,59.51
2023-02-05T04:44:48.359Z,59.32
2023-02-05T04:47:15.156Z,59.27
2023-02-05T04:49:42.057Z,59.75
2023-02-05T04:52:08.756Z,59.67
2023-02-05T04:54:37.438Z,59.78
2023-02-05T04:57:04.144Z,59.43
2023-02-05T04:59:31.673Z,59.67
2023-02-05T05:01:59.507Z,59.34
2023-02-05T05:04:26.640Z,59.81
2023-02-05T05:06:53.296Z,59.91
2023-02-05T05:09:24.065Z,59.57
2023-02-05T05:11:54.231Z,59.65
2023-02-05T05:14:21.096Z,59.83
2023-02-05T05:16:48.863Z,59.79
2023-02-05T05:19:15.916Z,59.81
2023-02-05T05:21:42.648Z,59.88
2023-02-05T05:24:09.511Z,59.72
2023-02-05T05:26:36.283Z,59.89
2023-02-05T05:29:03.182Z,59.64
2023-02-05T05:31:29.897Z,59.98
2023-02-05T05:33:56.689Z,59.64
2023-02-05T05:36:23.458Z,59.98
2023-02-05T05:38:50.186Z,59.71
2023-02-05T05:41:41.643Z,60.04
2023-02-05T05:44:09.358Z,59.99
2023-02-05T05:46:36.614Z,59.94
2023-02-05T05:49:04.157Z,59.67
2023-02-05T05:51:32.622Z,59.70
2023-02-05T05:53:59.522Z,60.03
2023-02-05T05:56:26.217Z,60.13
2023-02-05T05:58:53.012Z,60.01
2023-02-05T06:01:22.018Z,59.62
2023-02-05T06:03:49.515Z,59.81
2023-02-05T06:06:16.278Z,60.06
2023-02-05T06:08:43.049Z,60.00
2023-02-05T06:11:09.764Z,59.75
2023-02-05T06:13:36.643Z,59.85
2023-02-05T06:16:03.984Z,59.76
2023-02-05T06:18:31.154Z,59.98
2023-02-05T06:20:58.133Z,59.90
2023-02-05T06:23:24.962Z,60.08
2023-02-05T06:25:51.632Z,59.70
2023-02-05T06:28:18.593Z,60.00
2023-02-05T06:30:45.450Z,60.04
2023-02-05T06:33:12.994Z,59.63
2023-02-05T06:35:41.166Z,59.94
2023-02-05T06:38:08.551Z,59.97
2023-02-05T06:40:35.290Z,60.18
2023-02-05T06:43:02.034Z,60.17
2023-02-05T06:45:28.739Z,59.74
2023-02-05T06:47:56.227Z,60.29
2023-02-05T06:50:23.505Z,60.21
2023-02-05T06:52:51.315Z,59.85
2023-02-05T06:55:18.544Z,60.11
2023-02-05T06:57:45.308Z,60.27
2023-02-05T07:00:12.734Z,59.88
2023-02-05T07:02:39.512Z,59.58
2023-02-05T07:05:07.026Z,60.57
2023-02-05T07:07:33.730Z,61.59
2023-02-05T07:10:00.979Z,61.86
2023-02-05T07:12:27.907Z,62.87
2023-02-05T07:14:55.416Z,63.37
2023-02-05T07:17:22.348Z,63.54
2023-02-05T07:19:49.150Z,64.47
2023-02-05T07:22:16.303Z,64.89
2023-02-05T07:24:43.085Z,64.88
2023-02-05T07:27:09.952Z,65.16
2023-02-05T07:29:38.018Z,65.30
2023-02-05T07:32:05.098Z,65.69
2023-02-05T07:34:31.864Z,65.59
2023-02-05T07:37:00.134Z,65.73
2023-02-05T07:39:29.674Z,65.81
2023-02-05T07:41:56.677Z,65.81
2023-02-05T07:44:34.881Z,66.13
2023-02-05T07:47:02.160Z,66.33
2023-02-05T07:49:28.841Z,66.56
2023-02-05T07:51:55.598Z,66.64
2023-02-05T07:54:22.305Z,66.55
2023-02-05T07:56:49.104Z,66.75
2023-02-05T07:59:16.044Z,66.58
2023-02-05T08:01:42.876Z,66.65
2023-02-05T08:04:09.772Z,66.99
2023-02-05T08:06:36.664Z,67.10
2023-02-05T08:09:03.648Z,67.13
2023-02-05T08:11:32.545Z,67.41
2023-02-05T08:14:01.149Z,67.32
2023-02-05T08:16:27.923Z,67.71
2023-02-05T08:18:54.692Z,67.91
2023-02-05T08:21:22.047Z,67.80
2023-02-05T08:23:49.245Z,67.93
2023-02-05T08:26:16.282Z,67.27
2023-02-05T08:28:43.727Z,67.51
2023-02-05T08:31:12.863Z,67.65
2023-02-05T08:33:39.814Z,67.47
2023-02-05T08:36:07.364Z,66.97
2023-02-05T08:38:34.170Z,67.03
2023-02-05T08:41:13.432Z,67.32
2023-02-05T08:43:44.557Z,67.20
2023-02-05T08:46:13.155Z,67.56
2023-02-05T08:48:40.092Z,67.68
2023-02-05T08:51:08.417Z,67.48
2023-02-05T08:53:35.373Z,67.60
2023-02-05T08:56:03.838Z,67.92
2023-02-05T08:58:30.695Z,67.75
2023-02-05T09:01:06.490Z,68.34
2023-02-05T09:03:33.899Z,68.49
2023-02-05T09:06:01.323Z,68.47
2023-02-05T09:08:30.384Z,68.15
2023-02-05T09:10:57.784Z,68.06
2023-02-05T09:13:25.247Z,68.29
2023-02-05T09:15:52.238Z,68.38
2023-02-05T09:18:19.334Z,68.84
2023-02-05T09:20:48.112Z,68.57
2023-02-05T09:23:16.700Z,68.58
2023-02-05T09:25:43.581Z,68.70
2023-02-05T09:28:13.071Z,68.75
2023-02-05T09:30:41.305Z,68.62
2023-02-05T09:33:08.926Z,69.02
2023-02-05T09:35:36.514Z,68.61
2023-02-05T09:38:03.653Z,68.67
2023-02-05T09:40:34.881Z,68.79
2023-02-05T09:43:20.841Z,68.18
2023-02-05T09:45:50.585Z,68.19
2023-02-05T09:48:32.640Z,68.28
2023-02-05T09:50:59.965Z,68.30
2023-02-05T09:53:33.588Z,68.74
2023-02-05T09:56:01.999Z,68.88
2023-02-05T09:58:37.990Z,68.65
2023-02-05T10:01:10.243Z,68.89
2023-02-05T10:03:47.059Z,68.56
2023-02-05T10:06:19.995Z,68.38
2023-02-05T10:09:02.581Z,68.75
2023-02-05T10:11:41.479Z,68.42
2023-02-05T10:14:26.755Z,68.74
2023-02-05T10:17:19.699Z,68.36
2023-02-05T10:19:53.232Z,68.40
2023-02-05T10:22:35.149Z,68.39
2023-02-05T10:25:01.895Z,68.89
2023-02-05T10:27:45.296Z,68.96
2023-02-05T10:30:16.483Z,68.94
2023-02-05T10:32:59.209Z,68.76
2023-02-05T10:35:39.193Z,68.83
2023-02-05T10:38:16.388Z,68.77
2023-02-05T10:40:46.627Z,68.49
2023-02-05T10:43:29.833Z,68.69
2023-02-05T10:45:57.032Z,68.16
2023-02-05T10:48:26.384Z,67.76
2023-02-05T10:51:00.343Z,68.03
2023-02-05T10:53:28.739Z,68.18
2023-02-05T10:55:57.052Z,67.74
2023-02-05T10:58:45.655Z,67.80
2023-02-05T11:01:24.076Z,67.19
2023-02-05T11:03:59.875Z,66.24
2023-02-05T11:06:29.123Z,65.81
2023-02-05T11:08:56.224Z,65.77
2023-02-05T11:11:29.183Z,65.71
2023-02-05T11:14:01.008Z,66.18
2023-02-05T11:16:42.784Z,66.57
2023-02-05T11:19:24.829Z,67.08
2023-02-05T11:21:59.099Z,67.41
2023-02-05T11:24:32.982Z,67.38
2023-02-05T11:27:26.696Z,67.09
2023-02-05T11:29:55.232Z,67.42
2023-02-05T11:32:29.821Z,67.44
2023-02-05T11:35:25.798Z,67.31
2023-02-05T11:38:08.544Z,66.44
2023-02-05T11:40:36.317Z,65.91
2023-02-05T11:43:15.613Z,66.25
2023-02-05T11:45:48.480Z,66.60
2023-02-05T11:48:37.196Z,66.59
2023-02-05T11:51:05.308Z,66.11
2023-02-05T11:53:34.937Z,66.01
2023-02-05T11:56:05.051Z,65.98
2023-02-05T11:58:36.940Z,65.47
2023-02-05T12:01:24.065Z,65.64
2023-02-05T12:04:01.488Z,65.56
2023-02-05T12:06:35.947Z,65.89
2023-02-05T12:09:03.627Z,65.11
2023-02-05T12:12:08.093Z,65.50
2023-02-05T12:14:41.193Z,65.74
2023-02-05T12:17:28.224Z,65.95
2023-02-05T12:20:10.125Z,66.14
2023-02-05T12:22:55.255Z,66.49
2023-02-05T12:25:42.702Z,66.21
2023-02-05T12:28:35.022Z,66.04
2023-02-05T12:31:48.208Z,66.17
2023-02-05T12:34:18.924Z,66.38
2023-02-05T12:37:09.532Z,66.39
2023-02-05T12:39:54.257Z,65.94
2023-02-05T12:42:30.324Z,65.32
2023-02-05T12:45:09.286Z,65.59
2023-02-05T12:47:48.569Z,66.08
2023-02-05T12:50:52.537Z,66.57
2023-02-05T12:53:33.632Z,67.17
2023-02-05T12:56:19.503Z,67.61
2023-02-05T12:58:49.406Z,67.95
2023-02-05T13:01:22.958Z,68.01
2023-02-05T13:03:54.142Z,68.04
2023-02-05T13:06:27.003Z,68.09
2023-02-05T13:08:59.412Z,68.08
2023-02-05T13:11:32.171Z,68.20
2023-02-05T13:14:18.257Z,68.23
2023-02-05T13:16:55.748Z,68.41
2023-02-05T13:19:26.275Z,68.22
2023-02-05T13:22:14.997Z,68.84
2023-02-05T13:25:04.948Z,68.30
2023-02-05T13:27:54.249Z,68.28
2023-02-05T13:30:26.271Z,68.82
2023-02-05T13:32:56.026Z,68.68
2023-02-05T13:35:23.914Z,68.92
2023-02-05T13:38:10.169Z,68.60
2023-02-05T13:41:10.977Z,68.34
2023-02-05T13:44:00.693Z,68.83
2023-02-05T13:46:58.264Z,68.61
2023-02-05T13:49:43.286Z,68.99
2023-02-05T13:52:10.122Z,68.54
2023-02-05T13:54:55.479Z,68.38
2023-02-05T13:57:47.641Z,68.45
2023-02-05T14:00:14.296Z,68.77
2023-02-05T14:02:44.010Z,68.38
2023-02-05T14:05:13.743Z,68.35
2023-02-05T14:07:47.172Z,68.55
2023-02-05T14:10:36.849Z,68.63
2023-02-05T14:13:31.103Z,68.80
2023-02-05T14:16:00.499Z,68.72
2023-02-05T14:18:48.438Z,69.38
2023-02-05T14:21:30.598Z,69.21
2023-02-05T14:24:02.876Z,68.46
2023-02-05T14:26:49.162Z,68.60
2023-02-05T14:29:48.295Z,68.61
2023-02-05T14:32:30.806Z,68.57
2023-02-05T14:35:00.955Z,68.48
2023-02-05T14:37:39.370Z,68.72
2023-02-05T14:40:37.197Z,68.61
2023-02-05T14:43:27.644Z,67.92
2023-02-05T14:45:55.062Z,67.63
2023-02-05T14:48:25.388Z,68.39
2023-02-05T14:51:28.969Z,68.44
2023-02-05T14:54:00.427Z,68.91
2023-02-05T14:56:34.315Z,68.67
2023-02-05T14:59:05.285Z,67.07
2023-02-05T15:01:35.168Z,67.85
2023-02-05T15:04:03.563Z,68.63
2023-02-05T15:06:37.864Z,69.61
2023-02-05T15:09:13.565Z,70.01
2023-02-05T15:11:56.906Z,70.14
2023-02-05T15:14:25.490Z,70.29
2023-02-05T15:17:27.884Z,70.43
2023-02-05T15:19:59.774Z,70.63
2023-02-05T15:22:35.430Z,70.58
2023-02-05T15:25:05.383Z,70.85
2023-02-05T15:27:41.776Z,70.93
2023-02-05T15:30:10.058Z,70.97
2023-02-05T15:32:57.812Z,70.72
2023-02-05T15:35:26.500Z,71.21
2023-02-05T15:37:55.969Z,71.34
2023-02-05T15:40:27.538Z,71.21
2023-02-05T15:43:00.823Z,70.95
2023-02-05T15:45:39.827Z,70.63
2023-02-05T15:48:11.866Z,70.63
2023-02-05T15:51:10.261Z,70.65
2023-02-05T15:53:41.484Z,70.82
2023-02-05T15:56:16.093Z,70.71
2023-02-05T15:58:49.240Z,69.86
2023-02-05T16:01:28.363Z,69.62
2023-02-05T16:03:55.376Z,69.44
2023-02-05T16:06:23.374Z,69.57
2023-02-05T16:08:55.664Z,69.14
2023-02-05T16:11:33.823Z,69.44
2023-02-05T16:14:07.340Z,69.17
2023-02-05T16:16:36.406Z,69.95
2023-02-05T16:19:05.237Z,69.91
2023-02-05T16:22:05.431Z,70.21
2023-02-05T16:24:34.434Z,70.21
2023-02-05T16:27:06.195Z,70.27
2023-02-05T16:29:47.593Z,70.44
2023-02-05T16:32:30.419Z,70.64
2023-02-05T16:34:58.021Z,70.84
2023-02-05T16:37:30.273Z,71.12
2023-02-05T16:39:58.642Z,71.15
2023-02-05T16:42:31.800Z,71.06
2023-02-05T16:45:11.265Z,71.38
2023-02-05T16:47:38.154Z,71.61
2023-02-05T16:50:34.522Z,71.59
2023-02-05T16:53:01.409Z,71.29
2023-02-05T16:55:28.386Z,71.31
2023-02-05T16:57:56.398Z,71.50
2023-02-05T17:00:25.911Z,71.13
2023-02-05T17:02:55.482Z,71.47
2023-02-05T17:05:23.737Z,71.47
2023-02-05T17:08:00.124Z,71.86
2023-02-05T17:10:29.026Z,71.52
2023-02-05T17:13:05.486Z,71.81
2023-02-05T17:15:34.959Z,71.53
2023-02-05T17:18:20.422Z,71.91
2023-02-05T17:20:47.225Z,71.91
2023-02-05T17:23:15.680Z,71.97
2023-02-05T17:25:54.821Z,71.26
2023-02-05T17:28:25.666Z,71.04
2023-02-05T17:30:53.805Z,70.84
2023-02-05T17:33:25.035Z,70.74
2023-02-05T17:35:52.065Z,70.51
2023-02-05T17:38:20.574Z,70.29
2023-02-05T17:40:47.606Z,70.06
2023-02-05T17:43:14.432Z,69.79
2023-02-05T17:45:43.001Z,69.74
2023-02-05T17:48:10.340Z,69.65
2023-02-05T17:50:37.506Z,68.85
2023-02-05T17:53:04.604Z,68.99
2023-02-05T17:55:31.859Z,68.96
2023-02-05T17:57:59.195Z,68.84
2023-02-05T18:00:29.025Z,68.24
2023-02-05T18:02:55.833Z,68.17
2023-02-05T18:05:23.232Z,68.31
2023-02-05T18:07:59.687Z,67.78
2023-02-05T18:10:29.489Z,68.04
2023-02-05T18:12:56.365Z,67.95
2023-02-05T18:15:24.406Z,67.37
2023-02-05T18:17:51.979Z,67.42
2023-02-05T18:20:20.948Z,67.59
2023-02-05T18:22:49.154Z,67.29
2023-02-05T18:25:16.265Z,66.98
2023-02-05T18:27:43.096Z,67.21
2023-02-05T18:30:10.400Z,67.17
2023-02-05T18:32:37.266Z,66.75
2023-02-05T18:35:04.171Z,67.08
2023-02-05T18:37:31.698Z,66.77
2023-02-05T18:39:58.436Z,66.73
2023-02-05T18:42:25.297Z,66.96
2023-02-05T18:44:51.963Z,67.07
2023-02-05T18:47:18.761Z,66.79
2023-02-05T18:49:45.435Z,66.57
2023-02-05T18:52:13.982Z,66.57
2023-02-05T18:54:41.020Z,66.18
2023-02-05T18:57:07.890Z,66.54
2023-02-05T18:59:34.792Z,66.23
2023-02-05T19:02:01.614Z,66.27
2023-02-05T19:04:32.853Z,65.95
2023-02-05T19:06:59.757Z,66.21
2023-02-05T19:09:27.455Z,66.08
2023-02-05T19:11:55.363Z,66.02
2023-02-05T19:14:23.772Z,66.05
2023-02-05T19:16:50.769Z,65.75
2023-02-05T19:19:21.258Z,65.60
2023-02-05T19:21:51.261Z,65.45
2023-02-05T19:24:18.897Z,65.51
2023-02-05T19:26:45.756Z,65.39
2023-02-05T19:29:14.912Z,65.43
2023-02-05T19:31:42.272Z,65.61
2023-02-05T19:34:09.638Z,65.66
2023-02-05T19:36:36.983Z,65.68
2023-02-05T19:39:05.615Z,65.56
2023-02-05T19:41:33.943Z,65.23
2023-02-05T19:44:04.097Z,65.03
2023-02-05T19:46:33.421Z,65.09
2023-02-05T19:49:02.476Z,64.85
2023-02-05T19:51:29.638Z,65.30
2023-02-05T19:53:57.734Z,64.86
2023-02-05T19:56:25.407Z,64.87
2023-02-05T19:58:54.391Z,65.34
2023-02-05T20:01:24.382Z,65.33
2023-02-05T20:03:53.390Z,65.14
2023-02-05T20:06:21.422Z,65.22
2023-02-05T20:08:48.500Z,65.08
2023-02-05T20:11:16.008Z,64.70
2023-02-05T20:13:42.937Z,64.95
2023-02-05T20:16:13.808Z,64.69
2023-02-05T20:18:41.520Z,64.72
2023-02-05T20:21:09.961Z,64.84
2023-02-05T20:23:36.953Z,64.74
2023-02-05T20:26:04.618Z,64.75
2023-02-05T20:28:33.450Z,64.68
2023-02-05T20:31:18.812Z,64.64
2023-02-05T20:33:48.625Z,64.97
2023-02-05T20:36:15.423Z,64.76
2023-02-05T20:38:42.104Z,64.71
2023-02-05T20:41:14.385Z,64.94
2023-02-05T20:43:41.316Z,64.55
2023-02-05T20:46:08.549Z,64.92
2023-02-05T20:48:35.348Z,64.84
2023-02-05T20:51:07.376Z,64.40
2023-02-05T20:53:35.399Z,64.61
2023-02-05T20:56:14.494Z,64.38
2023-02-05T20:58:41.506Z,64.39
2023-02-05T21:01:17.323Z,64.64
2023-02-05T21:03:46.562Z,64.57
2023-02-05T21:06:15.653Z,64.65
2023-02-05T21:08:45.459Z,64.40
2023-02-05T21:11:16.500Z,64.43
2023-02-05T21:13:45.229Z,64.63
2023-02-05T21:16:13.492Z,64.64
2023-02-05T21:18:40.456Z,64.61
2023-02-05T21:21:16.451Z,64.55
2023-02-05T21:23:43.893Z,64.46
2023-02-05T21:26:38.678Z,64.51
2023-02-05T21:29:10.107Z,64.45
2023-02-05T21:31:44.002Z,64.52
2023-02-05T21:34:14.325Z,64.54
2023-02-05T21:36:41.288Z,64.14
2023-02-05T21:39:09.487Z,63.93
2023-02-05T21:41:36.406Z,64.03
2023-02-05T21:44:03.196Z,63.92
2023-02-05T21:46:30.188Z,63.93
2023-02-05T21:48:58.717Z,64.02
2023-02-05T21:51:28.311Z,64.20
2023-02-05T21:53:58.752Z,64.38
2023-02-05T21:56:28.717Z,64.01
2023-02-05T21:58:55.992Z,63.98
2023-02-05T22:01:25.221Z,63.89
2023-02-05T22:03:54.658Z,64.12
2023-02-05T22:06:22.841Z,63.92
2023-02-05T22:08:51.014Z,64.02
2023-02-05T22:11:21.780Z,63.97
2023-02-05T22:13:49.320Z,63.75
2023-02-05T22:16:21.351Z,63.52
2023-02-05T22:18:48.828Z,63.97
2023-02-05T22:21:18.080Z,63.94
2023-02-05T22:23:49.136Z,63.42
2023-02-05T22:26:18.334Z,63.89
2023-02-05T22:28:45.342Z,63.63
2023-02-05T22:31:14.216Z,63.53
2023-02-05T22:33:42.088Z,63.69
2023-02-05T22:36:10.570Z,63.51
2023-02-05T22:38:38.642Z,63.80
2023-02-05T22:41:14.501Z,63.38
2023-02-05T22:43:41.386Z,63.67
2023-02-05T22:46:10.439Z,63.81
2023-02-05T22:48:38.351Z,63.73
2023-02-05T22:51:06.700Z,63.57
2023-02-05T22:53:33.876Z,63.27
2023-02-05T22:56:01.975Z,63.12
2023-02-05T22:58:29.124Z,63.51
2023-02-05T23:00:55.801Z,63.21
2023-02-05T23:03:23.628Z,63.32
2023-02-05T23:05:50.870Z,63.00
2023-02-05T23:08:17.640Z,62.74
2023-02-05T23:10:44.402Z,62.76
2023-02-05T23:13:11.171Z,63.04
2023-02-05T23:15:37.824Z,63.05
2023-02-05T23:18:04.789Z,62.52
2023-02-05T23:20:32.450Z,62.57
2023-02-05T23:22:59.200Z,62.51
2023-02-05T23:25:25.941Z,62.59
2023-02-05T23:27:52.751Z,62.51
2023-02-05T23:30:19.594Z,62.67
2023-02-05T23:32:46.557Z,62.23
2023-02-05T23:35:13.289Z,62.16
2023-02-05T23:37:40.136Z,62.07
2023-02-05T23:40:07.369Z,62.48
2023-02-05T23:42:34.189Z,62.32
2023-02-05T23:45:00.871Z,62.36
2023-02-05T23:47:27.582Z,62.13
2023-02-05T23:49:54.322Z,62.26
2023-02-05T23:52:21.057Z,62.20
2023-02-05T23:54:47.672Z,61.93
2023-02-05T23:57:14.405Z,61.95
2023-02-05T23:59:41.083Z,62.19
